Time;durP1;ratioP1;P1;durP2;ratioP2;P2;SDS_P1;SDS_P2;PMS_P1;PMS_P2;Temp;Humidity;BMP_temperature;BMP_pressure;BME280_temperature;BME280_humidity;BME280_pressure;Samples;Min_cycle;Max_cycle;Signal;HPM_P1;HPM_P2
2022/05/30 00:00:55;;;;;;;2.53;0.50;;;;;;;;;;4919392;28;20071;-77
2022/05/30 00:03:21;;;;;;;1.38;0.43;;;;;;;;;;5003138;28;20039;-78
2022/05/30 00:05:47;;;;;;;2.05;0.70;;;;;;;;;;4952420;28;20097;-78
2022/05/30 00:08:14;;;;;;;2.67;0.80;;;;;;;;;;4936099;28;20036;-77
2022/05/30 00:10:39;;;;;;;2.17;0.60;;;;;;;;;;4936042;28;20097;-78
2022/05/30 00:13:06;;;;;;;1.95;0.55;;;;;;;;;;4935545;29;20035;-77
2022/05/30 00:15:32;;;;;;;2.45;0.60;;;;;;;;;;4936117;28;20046;-78
2022/05/30 00:17:57;;;;;;;1.92;0.60;;;;;;;;;;4950721;28;20110;-77
2022/05/30 00:20:24;;;;;;;1.33;0.40;;;;;;;;;;4951673;29;20523;-78
2022/05/30 00:22:49;;;;;;;1.35;0.50;;;;;;;;;;4936030;29;20108;-78
2022/05/30 00:25:15;;;;;;;2.53;0.60;;;;;;;;;;4951213;28;20044;-78
2022/05/30 00:27:40;;;;;;;2.25;0.90;;;;;;;;;;4946498;29;20094;-78
2022/05/30 00:30:06;;;;;;;1.48;0.63;;;;;;;;;;4916518;29;20457;-77
2022/05/30 00:32:33;;;;;;;2.50;0.82;;;;;;;;;;4999477;28;20086;-78
2022/05/30 00:34:58;;;;;;;1.48;0.52;;;;;;;;;;4999570;28;20083;-78
2022/05/30 00:37:25;;;;;;;1.70;0.63;;;;;;;;;;4999405;28;20089;-77
2022/05/30 00:39:51;;;;;;;2.30;0.63;;;;;;;;;;4916573;28;20039;-77
2022/05/30 00:42:19;;;;;;;1.83;0.60;;;;;;;;;;4999652;28;20050;-78
2022/05/30 00:44:46;;;;;;;1.85;0.60;;;;;;;;;;4983221;28;20494;-78
2022/05/30 00:47:11;;;;;;;1.17;0.47;;;;;;;;;;4916505;29;20111;-77
2022/05/30 00:49:38;;;;;;;1.85;0.50;;;;;;;;;;4999200;28;20075;-78
2022/05/30 00:52:05;;;;;;;2.20;0.50;;;;;;;;;;4999439;28;20048;-77
2022/05/30 00:55:06;;;;;;;2.65;0.85;;;;;;;;;;4916620;29;20093;-77
2022/05/30 00:57:32;;;;;;;2.33;0.65;;;;;;;;;;4938505;28;20052;-78
2022/05/30 01:00:03;;;;;;;1.55;0.75;;;;;;;;;;4982922;28;20883;-78
2022/05/30 01:02:33;;;;;;;2.25;0.52;;;;;;;;;;4932323;28;20066;-77
2022/05/30 01:07:43;;;;;;;2.08;0.47;;;;;;;;;;4999045;28;20148;-78
2022/05/30 01:10:10;;;;;;;3.72;1.20;;;;;;;;;;4998727;28;20517;-77
2022/05/30 01:12:42;;;;;;;2.25;0.60;;;;;;;;;;4982382;28;20040;-78
2022/05/30 01:15:10;;;;;;;1.40;0.40;;;;;;;;;;4947382;28;20040;-78
2022/05/30 01:17:41;;;;;;;2.70;0.60;;;;;;;;;;4915784;28;20044;-78
2022/05/30 01:20:11;;;;;;;2.00;0.68;;;;;;;;;;4947036;28;20043;-77
2022/05/30 01:22:42;;;;;;;1.33;0.85;;;;;;;;;;4997998;28;20046;-77
2022/05/30 01:25:22;;;;;;;2.23;0.60;;;;;;;;;;4933213;28;20394;-77
2022/05/30 01:28:26;;;;;;;1.90;0.40;;;;;;;;;;4951031;28;20051;-77
2022/05/30 01:30:52;;;;;;;2.33;0.70;;;;;;;;;;4934610;29;20047;-78
2022/05/30 01:33:18;;;;;;;2.78;0.73;;;;;;;;;;4951025;29;20137;-78
2022/05/30 01:35:43;;;;;;;2.50;0.57;;;;;;;;;;4950614;28;20041;-77
2022/05/30 01:38:08;;;;;;;2.05;0.57;;;;;;;;;;4934397;29;20465;-78
2022/05/30 01:40:34;;;;;;;1.38;0.57;;;;;;;;;;4934788;29;20066;-78
2022/05/30 01:42:59;;;;;;;1.20;0.65;;;;;;;;;;4934438;29;20079;-77
2022/05/30 01:45:25;;;;;;;1.42;0.45;;;;;;;;;;4918804;28;20038;-78
2022/05/30 01:47:50;;;;;;;2.35;0.50;;;;;;;;;;4918783;28;20047;-77
2022/05/30 01:50:16;;;;;;;1.45;0.40;;;;;;;;;;4918497;29;20513;-78
2022/05/30 01:52:42;;;;;;;2.58;0.70;;;;;;;;;;4918454;28;20421;-77
2022/05/30 01:55:08;;;;;;;1.73;0.52;;;;;;;;;;4918747;29;20039;-78
2022/05/30 01:57:33;;;;;;;1.75;0.47;;;;;;;;;;4934208;28;20150;-78
2022/05/30 01:59:58;;;;;;;2.70;0.73;;;;;;;;;;4934262;29;20074;-78
2022/05/30 02:02:24;;;;;;;1.38;0.40;;;;;;;;;;4934352;29;20153;-77
2022/05/30 02:04:52;;;;;;;2.15;0.50;;;;;;;;;;4934579;29;20413;-78
2022/05/30 02:07:18;;;;;;;2.75;0.40;;;;;;;;;;4934208;28;20058;-77
2022/05/30 02:09:44;;;;;;;2.50;0.73;;;;;;;;;;5001096;28;20044;-77
2022/05/30 02:12:11;;;;;;;1.33;0.60;;;;;;;;;;4934444;28;20406;-77
2022/05/30 02:14:36;;;;;;;1.95;0.70;;;;;;;;;;5017216;28;20035;-77
2022/05/30 02:17:04;;;;;;;2.00;0.60;;;;;;;;;;4933789;28;20050;-77
2022/05/30 02:19:37;;;;;;;1.02;0.38;;;;;;;;;;4949911;29;20035;-77
2022/05/30 02:22:03;;;;;;;4.30;0.90;;;;;;;;;;4934670;28;20050;-78
2022/05/30 02:24:28;;;;;;;2.22;0.60;;;;;;;;;;4934283;28;20054;-78
2022/05/30 02:26:54;;;;;;;1.52;0.70;;;;;;;;;;4933726;29;20039;-78
2022/05/30 02:29:19;;;;;;;3.10;0.98;;;;;;;;;;4933596;28;20085;-78
2022/05/30 02:31:44;;;;;;;2.85;0.82;;;;;;;;;;4918099;28;20565;-78
2022/05/30 02:36:54;;;;;;;1.80;0.50;;;;;;;;;;4936532;28;20047;-77
2022/05/30 02:39:20;;;;;;;1.05;0.43;;;;;;;;;;4949795;29;20096;-78
2022/05/30 02:41:46;;;;;;;3.10;0.57;;;;;;;;;;4933229;29;20043;-77
2022/05/30 02:44:13;;;;;;;2.03;0.60;;;;;;;;;;4933626;28;20034;-78
2022/05/30 02:46:38;;;;;;;2.40;0.77;;;;;;;;;;4949831;28;20071;-77
2022/05/30 02:49:04;;;;;;;2.10;0.50;;;;;;;;;;4933118;29;20176;-77
2022/05/30 02:51:29;;;;;;;2.28;0.60;;;;;;;;;;4933508;29;20413;-77
2022/05/30 02:53:55;;;;;;;2.35;0.90;;;;;;;;;;4918053;28;20108;-78
2022/05/30 02:56:20;;;;;;;1.60;0.45;;;;;;;;;;4917823;28;20039;-78
2022/05/30 02:58:46;;;;;;;3.42;0.70;;;;;;;;;;4917355;28;20127;-78
2022/05/30 03:01:11;;;;;;;1.92;0.55;;;;;;;;;;4917612;28;20051;-77
2022/05/30 03:03:37;;;;;;;2.97;0.63;;;;;;;;;;4933672;28;20152;-77
2022/05/30 03:06:03;;;;;;;4.53;1.30;;;;;;;;;;4933690;28;20032;-77
2022/05/30 03:08:28;;;;;;;2.92;0.60;;;;;;;;;;4933715;28;20398;-78
2022/05/30 03:10:54;;;;;;;1.88;0.60;;;;;;;;;;4933804;29;20046;-78
2022/05/30 03:13:20;;;;;;;3.17;1.08;;;;;;;;;;4933199;29;20164;-77
2022/05/30 03:15:45;;;;;;;1.65;0.60;;;;;;;;;;4933508;29;20114;-78
2022/05/30 03:18:10;;;;;;;1.90;0.80;;;;;;;;;;4933186;29;20049;-78
2022/05/30 03:20:36;;;;;;;2.83;0.40;;;;;;;;;;4932937;28;20039;-78
2022/05/30 03:23:01;;;;;;;3.83;1.00;;;;;;;;;;4933371;28;20066;-77
2022/05/30 03:25:27;;;;;;;2.97;1.02;;;;;;;;;;4933168;28;20405;-77
2022/05/30 03:27:53;;;;;;;1.42;0.55;;;;;;;;;;4999906;28;20093;-78
2022/05/30 03:30:20;;;;;;;1.52;0.68;;;;;;;;;;4933185;29;20047;-77
2022/05/30 03:32:46;;;;;;;1.20;0.40;;;;;;;;;;4917478;28;20051;-77
2022/05/30 03:35:11;;;;;;;1.83;0.60;;;;;;;;;;4933085;29;20480;-78
2022/05/30 03:37:37;;;;;;;2.38;0.70;;;;;;;;;;4917316;28;20043;-77
2022/05/30 03:40:04;;;;;;;2.65;0.80;;;;;;;;;;4949066;28;20040;-78
2022/05/30 03:42:30;;;;;;;1.55;0.63;;;;;;;;;;4917407;28;20570;-77
2022/05/30 03:44:55;;;;;;;2.33;0.60;;;;;;;;;;4917474;28;20047;-77
2022/05/30 03:47:21;;;;;;;2.80;0.93;;;;;;;;;;4932769;29;20043;-77
2022/05/30 03:49:46;;;;;;;1.02;0.57;;;;;;;;;;4948726;28;20415;-78
2022/05/30 03:52:14;;;;;;;1.88;0.90;;;;;;;;;;4934516;28;20067;-77
2022/05/30 03:54:39;;;;;;;1.55;0.43;;;;;;;;;;4936281;29;20531;-77
2022/05/30 03:57:05;;;;;;;2.42;0.70;;;;;;;;;;4920206;28;20153;-77
2022/05/30 03:59:30;;;;;;;1.70;0.68;;;;;;;;;;4951783;28;20070;-77
2022/05/30 04:01:56;;;;;;;2.05;0.60;;;;;;;;;;4951784;28;20504;-77
2022/05/30 04:04:22;;;;;;;1.98;0.90;;;;;;;;;;4935892;29;20067;-78
2022/05/30 04:06:47;;;;;;;1.63;0.65;;;;;;;;;;4952230;28;20109;-77
2022/05/30 04:09:13;;;;;;;1.98;0.60;;;;;;;;;;4935836;29;20403;-77
2022/05/30 04:11:38;;;;;;;1.52;0.82;;;;;;;;;;4951883;28;20047;-77
2022/05/30 04:14:04;;;;;;;1.58;0.47;;;;;;;;;;4935959;29;20466;-77
2022/05/30 04:16:29;;;;;;;2.83;0.70;;;;;;;;;;4951662;29;20430;-77
2022/05/30 04:18:55;;;;;;;1.60;0.55;;;;;;;;;;4935776;28;20035;-78
2022/05/30 04:21:20;;;;;;;1.52;0.52;;;;;;;;;;4935856;29;20039;-77
2022/05/30 04:23:46;;;;;;;2.60;0.68;;;;;;;;;;4936064;29;20036;-77
2022/05/30 04:26:13;;;;;;;2.30;0.80;;;;;;;;;;4935292;28;20036;-77
2022/05/30 04:28:39;;;;;;;1.95;0.80;;;;;;;;;;4999467;28;20521;-78
2022/05/30 04:31:09;;;;;;;1.20;0.50;;;;;;;;;;4916909;29;20094;-77
2022/05/30 04:33:34;;;;;;;1.40;0.60;;;;;;;;;;4901207;28;20495;-77
2022/05/30 04:36:02;;;;;;;3.10;0.60;;;;;;;;;;4983090;28;20038;-77
2022/05/30 04:38:29;;;;;;;2.72;0.85;;;;;;;;;;4982315;28;20094;-77
2022/05/30 04:40:54;;;;;;;2.10;0.60;;;;;;;;;;4999748;28;20098;-77
2022/05/30 04:43:20;;;;;;;1.60;0.82;;;;;;;;;;4999064;28;20039;-77
2022/05/30 04:45:45;;;;;;;2.38;1.10;;;;;;;;;;4998898;28;20036;-77
2022/05/30 04:48:11;;;;;;;1.40;0.68;;;;;;;;;;4932191;29;20039;-77
2022/05/30 04:50:36;;;;;;;2.88;0.90;;;;;;;;;;4999140;28;20044;-77
2022/05/30 04:53:02;;;;;;;1.83;0.52;;;;;;;;;;4932459;29;20389;-77
2022/05/30 04:55:27;;;;;;;2.83;0.70;;;;;;;;;;4999116;28;20444;-77
2022/05/30 04:57:53;;;;;;;2.20;0.90;;;;;;;;;;4915943;28;20125;-77
2022/05/30 05:00:20;;;;;;;2.45;0.80;;;;;;;;;;4999375;28;20051;-78
2022/05/30 05:02:46;;;;;;;1.42;0.60;;;;;;;;;;4999056;28;20044;-77
2022/05/30 05:05:12;;;;;;;2.72;0.90;;;;;;;;;;4915520;29;20043;-77
2022/05/30 05:07:45;;;;;;;2.15;0.70;;;;;;;;;;4916161;28;20097;-77
2022/05/30 05:10:41;;;;;;;1.88;0.68;;;;;;;;;;4916647;28;20509;-77
2022/05/30 05:13:07;;;;;;;3.38;1.00;;;;;;;;;;4911592;29;20047;-81
2022/05/30 05:15:33;;;;;;;3.20;1.00;;;;;;;;;;4916270;29;20126;-82
2022/05/30 05:17:58;;;;;;;3.67;1.35;;;;;;;;;;4900231;29;20044;-80
2022/05/30 05:20:24;;;;;;;2.75;1.52;;;;;;;;;;4915809;29;20051;-80
2022/05/30 05:22:50;;;;;;;5.00;1.13;;;;;;;;;;4916214;29;20418;-80
2022/05/30 05:25:16;;;;;;;3.42;1.10;;;;;;;;;;4915734;29;20039;-81
2022/05/30 05:27:41;;;;;;;6.15;1.60;;;;;;;;;;4913773;28;20090;-81
2022/05/30 05:30:08;;;;;;;6.53;1.55;;;;;;;;;;4963505;28;20142;-81
2022/05/30 05:32:34;;;;;;;10.70;1.63;;;;;;;;;;4963965;28;20055;-80
2022/05/30 05:34:59;;;;;;;6.88;1.45;;;;;;;;;;4997490;28;20071;-80
2022/05/30 05:37:24;;;;;;;10.90;2.88;;;;;;;;;;4982050;28;20040;-79
2022/05/30 05:39:50;;;;;;;14.25;3.15;;;;;;;;;;4982100;28;20402;-80
2022/05/30 05:42:15;;;;;;;14.60;2.97;;;;;;;;;;4982200;28;20118;-78
2022/05/30 05:44:41;;;;;;;11.02;1.85;;;;;;;;;;5000013;28;20087;-79
2022/05/30 05:47:06;;;;;;;9.98;2.13;;;;;;;;;;5013547;28;20415;-79
2022/05/30 05:49:32;;;;;;;6.82;1.88;;;;;;;;;;4943432;28;20046;-79
2022/05/30 05:51:57;;;;;;;9.20;1.92;;;;;;;;;;5001503;28;20460;-79
2022/05/30 05:54:23;;;;;;;9.20;2.60;;;;;;;;;;4915752;29;20039;-79
2022/05/30 05:56:49;;;;;;;10.35;2.55;;;;;;;;;;4997938;28;20050;-79
2022/05/30 05:59:14;;;;;;;7.15;2.30;;;;;;;;;;4981124;28;20032;-79
2022/05/30 06:01:40;;;;;;;7.47;1.95;;;;;;;;;;4931941;28;20042;-79
2022/05/30 06:04:06;;;;;;;6.53;2.47;;;;;;;;;;4998661;28;20525;-79
2022/05/30 06:06:32;;;;;;;9.77;2.60;;;;;;;;;;4997696;28;20410;-79
2022/05/30 06:08:59;;;;;;;11.18;2.50;;;;;;;;;;4981513;28;20078;-79
2022/05/30 06:11:24;;;;;;;10.48;2.35;;;;;;;;;;5013051;28;20530;-79
2022/05/30 06:13:50;;;;;;;6.65;2.40;;;;;;;;;;4997280;28;20114;-78
2022/05/30 06:16:23;;;;;;;17.17;8.52;;;;;;;;;;4997657;28;20039;-79
2022/05/30 06:18:49;;;;;;;13.45;7.55;;;;;;;;;;5018083;28;20060;-78
2022/05/30 06:21:15;;;;;;;16.55;8.10;;;;;;;;;;5017664;28;20511;-79
2022/05/30 06:23:40;;;;;;;13.15;7.03;;;;;;;;;;5017600;28;20037;-78
2022/05/30 06:26:07;;;;;;;12.35;5.90;;;;;;;;;;4996989;28;20028;-78
2022/05/30 06:28:33;;;;;;;11.45;5.20;;;;;;;;;;4979721;28;20075;-78
2022/05/30 06:30:59;;;;;;;14.82;4.93;;;;;;;;;;4996736;28;20530;-78
2022/05/30 06:33:24;;;;;;;12.73;5.85;;;;;;;;;;4996770;28;20051;-77
2022/05/30 06:35:49;;;;;;;10.98;4.85;;;;;;;;;;4981452;28;20149;-77
2022/05/30 06:38:16;;;;;;;10.88;4.65;;;;;;;;;;4981128;28;20111;-76
2022/05/30 06:40:42;;;;;;;15.63;5.72;;;;;;;;;;4996165;28;20050;-77
2022/05/30 06:43:08;;;;;;;10.30;4.85;;;;;;;;;;4997027;28;20051;-77
2022/05/30 06:45:34;;;;;;;16.92;5.47;;;;;;;;;;5007449;28;20071;-77
2022/05/30 06:48:00;;;;;;;11.25;4.50;;;;;;;;;;4933968;29;20061;-77
2022/05/30 06:50:26;;;;;;;9.38;4.88;;;;;;;;;;4933507;28;20043;-77
2022/05/30 06:52:52;;;;;;;11.98;4.75;;;;;;;;;;4983972;28;20035;-77
2022/05/30 06:55:17;;;;;;;12.25;4.65;;;;;;;;;;4949307;28;20045;-77
2022/05/30 07:00:27;;;;;;;10.30;4.15;;;;;;;;;;4949905;28;20114;-76
2022/05/30 07:02:53;;;;;;;11.45;3.70;;;;;;;;;;4902163;28;20043;-77
2022/05/30 07:05:19;;;;;;;8.43;3.83;;;;;;;;;;4949465;28;20431;-77
2022/05/30 07:07:46;;;;;;;8.75;4.35;;;;;;;;;;4933529;28;20455;-77
2022/05/30 07:10:12;;;;;;;8.43;3.05;;;;;;;;;;4949143;29;20126;-77
2022/05/30 07:12:37;;;;;;;6.55;3.25;;;;;;;;;;4933616;29;20695;-77
2022/05/30 07:15:03;;;;;;;9.00;3.65;;;;;;;;;;4933496;29;20043;-77
2022/05/30 07:17:29;;;;;;;8.35;4.40;;;;;;;;;;4933210;28;20428;-77
2022/05/30 07:19:56;;;;;;;7.32;3.20;;;;;;;;;;4917315;29;20050;-77
2022/05/30 07:22:22;;;;;;;6.53;2.97;;;;;;;;;;4949255;29;20505;-77
2022/05/30 07:24:47;;;;;;;5.63;3.22;;;;;;;;;;4933345;29;20067;-77
2022/05/30 07:27:13;;;;;;;8.27;4.22;;;;;;;;;;4934302;28;20108;-76
2022/05/30 07:29:38;;;;;;;7.47;3.72;;;;;;;;;;5003615;28;20090;-77
2022/05/30 07:32:04;;;;;;;6.75;3.20;;;;;;;;;;5020424;28;20031;-77
2022/05/30 07:34:30;;;;;;;6.20;2.95;;;;;;;;;;4936573;29;20039;-77
2022/05/30 07:36:57;;;;;;;5.00;3.25;;;;;;;;;;5019964;28;20027;-77
2022/05/30 07:39:22;;;;;;;5.55;3.17;;;;;;;;;;4936261;28;20044;-77
2022/05/30 07:41:48;;;;;;;4.97;2.55;;;;;;;;;;4935710;28;20043;-77
2022/05/30 07:44:13;;;;;;;4.95;2.50;;;;;;;;;;5003290;28;20051;-77
2022/05/30 07:46:39;;;;;;;6.10;2.75;;;;;;;;;;4987616;28;20071;-77
2022/05/30 07:49:05;;;;;;;5.57;2.85;;;;;;;;;;4936066;29;20043;-77
2022/05/30 07:51:30;;;;;;;5.95;2.50;;;;;;;;;;4936357;29;20046;-77
2022/05/30 07:53:56;;;;;;;6.80;2.50;;;;;;;;;;4932788;29;20036;-77
2022/05/30 07:56:21;;;;;;;6.07;2.95;;;;;;;;;;5000376;28;20043;-77
2022/05/30 07:58:47;;;;;;;5.00;2.65;;;;;;;;;;4983631;28;20408;-77
2022/05/30 08:01:14;;;;;;;8.15;4.43;;;;;;;;;;5007191;28;20036;-77
2022/05/30 08:03:40;;;;;;;7.90;4.88;;;;;;;;;;4936200;29;20525;-77
2022/05/30 08:06:08;;;;;;;11.07;6.75;;;;;;;;;;4936263;28;20067;-77
2022/05/30 08:08:33;;;;;;;10.43;6.78;;;;;;;;;;4935907;28;20039;-77
2022/05/30 08:10:59;;;;;;;14.00;8.63;;;;;;;;;;4936309;29;20100;-78
2022/05/30 08:13:24;;;;;;;20.40;12.38;;;;;;;;;;4951650;28;20057;-77
2022/05/30 08:15:50;;;;;;;14.25;10.13;;;;;;;;;;5003283;28;20035;-77
2022/05/30 08:18:16;;;;;;;31.90;21.05;;;;;;;;;;4935998;29;20097;-77
2022/05/30 08:20:42;;;;;;;29.00;19.27;;;;;;;;;;4935695;28;20100;-77
2022/05/30 08:23:07;;;;;;;30.35;20.00;;;;;;;;;;4935570;29;20505;-77
2022/05/30 08:25:33;;;;;;;34.08;23.23;;;;;;;;;;4935761;29;20446;-77
2022/05/30 08:27:58;;;;;;;28.73;20.52;;;;;;;;;;4970104;28;20043;-77
2022/05/30 08:30:24;;;;;;;26.55;18.83;;;;;;;;;;4951892;29;20105;-77
2022/05/30 08:32:49;;;;;;;26.48;17.25;;;;;;;;;;4951762;28;20035;-77
2022/05/30 08:35:16;;;;;;;22.40;16.63;;;;;;;;;;5002637;28;20059;-77
2022/05/30 08:37:42;;;;;;;24.85;16.95;;;;;;;;;;4934936;28;20036;-78
2022/05/30 08:42:56;;;;;;;21.60;14.73;;;;;;;;;;4924980;29;20036;-77
2022/05/30 08:45:22;;;;;;;22.17;14.60;;;;;;;;;;4932229;28;20179;-77
2022/05/30 08:47:55;;;;;;;21.15;13.40;;;;;;;;;;5014323;28;20038;-78
2022/05/30 08:50:55;;;;;;;20.25;13.18;;;;;;;;;;4935115;28;20206;-77
2022/05/30 08:53:31;;;;;;;20.80;12.68;;;;;;;;;;4938417;28;20046;-78
2022/05/30 08:56:01;;;;;;;21.52;12.57;;;;;;;;;;4951762;28;20066;-78
2022/05/30 08:58:26;;;;;;;19.40;12.15;;;;;;;;;;4934861;29;20136;-78
2022/05/30 09:00:54;;;;;;;19.25;12.13;;;;;;;;;;4947098;29;20498;-77
2022/05/30 09:04:06;;;;;;;16.52;11.73;;;;;;;;;;4998695;28;20421;-78
2022/05/30 09:06:31;;;;;;;16.10;10.00;;;;;;;;;;4919780;29;20196;-79
2022/05/30 09:09:05;;;;;;;17.25;9.38;;;;;;;;;;4902703;28;20125;-79
2022/05/30 09:11:40;;;;;;;18.60;8.55;;;;;;;;;;4919077;29;20044;-79
2022/05/30 09:14:11;;;;;;;18.67;8.73;;;;;;;;;;4934874;29;20468;-78
2022/05/30 09:16:39;;;;;;;17.60;8.73;;;;;;;;;;4985746;28;20081;-78
2022/05/30 09:19:06;;;;;;;15.00;7.85;;;;;;;;;;5001061;28;20047;-78
2022/05/30 09:21:32;;;;;;;14.15;7.68;;;;;;;;;;5001747;28;20050;-78
2022/05/30 09:23:58;;;;;;;12.27;6.55;;;;;;;;;;5001896;28;20032;-79
2022/05/30 09:26:39;;;;;;;12.30;6.75;;;;;;;;;;4918606;28;20042;-79
2022/05/30 09:29:06;;;;;;;16.33;7.50;;;;;;;;;;4919249;28;20070;-78
2022/05/30 09:31:43;;;;;;;13.18;6.68;;;;;;;;;;4934732;29;20039;-79
2022/05/30 09:34:31;;;;;;;14.60;7.47;;;;;;;;;;4950688;28;20051;-79
2022/05/30 09:36:58;;;;;;;13.18;7.30;;;;;;;;;;4934237;28;20062;-78
2022/05/30 09:39:24;;;;;;;15.02;6.93;;;;;;;;;;5000774;28;20058;-78
2022/05/30 09:41:55;;;;;;;12.73;6.72;;;;;;;;;;5001091;28;20126;-78
2022/05/30 09:44:39;;;;;;;17.20;6.37;;;;;;;;;;4918542;28;20035;-78
2022/05/30 09:47:15;;;;;;;9.40;5.70;;;;;;;;;;4985003;28;20102;-79
2022/05/30 09:49:46;;;;;;;14.82;5.65;;;;;;;;;;5017378;28;20047;-79
2022/05/30 09:52:29;;;;;;;11.65;5.35;;;;;;;;;;4997985;28;20024;-79
2022/05/30 09:54:55;;;;;;;7.78;3.70;;;;;;;;;;4932375;28;20597;-79
2022/05/30 09:57:27;;;;;;;11.32;4.97;;;;;;;;;;4981005;28;20115;-79
2022/05/30 09:59:57;;;;;;;11.55;3.97;;;;;;;;;;5014505;28;20059;-78
2022/05/30 10:02:27;;;;;;;9.95;4.00;;;;;;;;;;4999151;28;20438;-78
2022/05/30 10:05:05;;;;;;;8.48;3.47;;;;;;;;;;4945991;29;20452;-79
2022/05/30 10:07:34;;;;;;;12.27;3.60;;;;;;;;;;4945872;28;20043;-79
2022/05/30 10:10:33;;;;;;;8.60;3.50;;;;;;;;;;4981506;28;20051;-79
2022/05/30 10:13:03;;;;;;;8.68;3.22;;;;;;;;;;4936618;28;20040;-79
2022/05/30 10:15:49;;;;;;;10.13;3.15;;;;;;;;;;4981087;28;20107;-79
2022/05/30 10:18:17;;;;;;;5.53;2.50;;;;;;;;;;4933481;28;20567;-79
2022/05/30 10:21:25;;;;;;;6.03;2.70;;;;;;;;;;4997239;28;20054;-79
2022/05/30 10:29:53;;;;;;;6.40;3.08;;;;;;;;;;5003282;28;20044;-80
2022/05/30 10:32:46;;;;;;;8.63;4.07;;;;;;;;;;4950838;29;20043;-79
2022/05/30 10:35:39;;;;;;;8.60;4.15;;;;;;;;;;4949793;28;20039;-79
2022/05/30 10:38:14;;;;;;;10.60;5.57;;;;;;;;;;4961681;28;20430;-79
2022/05/30 10:40:40;;;;;;;12.70;6.38;;;;;;;;;;5030379;28;20489;-79
2022/05/30 10:43:09;;;;;;;11.73;7.75;;;;;;;;;;4980091;28;20126;-79
2022/05/30 10:45:57;;;;;;;10.38;7.55;;;;;;;;;;4999345;28;20049;-79
2022/05/30 10:48:31;;;;;;;10.30;7.22;;;;;;;;;;4933411;28;20124;-79
2022/05/30 10:50:58;;;;;;;13.23;6.35;;;;;;;;;;4908885;28;20046;-79
2022/05/30 10:53:42;;;;;;;9.70;6.68;;;;;;;;;;4940090;28;20036;-79
2022/05/30 10:56:35;;;;;;;10.32;6.25;;;;;;;;;;4949484;28;20039;-79
2022/05/30 10:59:06;;;;;;;7.43;5.65;;;;;;;;;;4999925;28;20048;-79
2022/05/30 11:01:50;;;;;;;9.82;5.60;;;;;;;;;;4937722;28;20034;-79
2022/05/30 11:04:33;;;;;;;11.45;6.32;;;;;;;;;;4950247;28;20043;-78
2022/05/30 11:07:16;;;;;;;8.30;4.80;;;;;;;;;;4931767;28;20039;-79
2022/05/30 11:09:46;;;;;;;8.25;5.38;;;;;;;;;;4940781;29;20081;-79
2022/05/30 11:12:38;;;;;;;7.57;4.80;;;;;;;;;;4929416;29;20502;-79
2022/05/30 11:15:22;;;;;;;7.35;5.07;;;;;;;;;;5008538;28;20042;-78
2022/05/30 11:17:55;;;;;;;7.55;4.32;;;;;;;;;;4928048;28;20131;-79
2022/05/30 11:20:26;;;;;;;8.68;4.82;;;;;;;;;;4931883;29;20410;-79
2022/05/30 11:22:52;;;;;;;8.65;4.28;;;;;;;;;;4979808;28;20035;-80
2022/05/30 11:25:36;;;;;;;9.30;4.03;;;;;;;;;;4983051;28;20039;-80
2022/05/30 11:28:23;;;;;;;10.82;4.00;;;;;;;;;;5014527;28;20039;-79
2022/05/30 11:30:55;;;;;;;10.90;3.83;;;;;;;;;;4940255;28;20592;-79
2022/05/30 11:33:49;;;;;;;8.20;3.60;;;;;;;;;;4963759;28;20027;-80
2022/05/30 11:36:52;;;;;;;8.15;3.50;;;;;;;;;;4946373;28;20104;-80
2022/05/30 11:39:32;;;;;;;;;;;;;;;;;;4997819;28;20062;-80
2022/05/30 11:42:18;;;;;;;9.18;3.35;;;;;;;;;;4947968;28;19922;-80
2022/05/30 11:45:06;;;;;;;8.25;3.33;;;;;;;;;;4973256;28;21389;-80
2022/05/30 11:47:38;;;;;;;7.82;2.92;;;;;;;;;;4970478;28;20463;-79
2022/05/30 11:50:28;;;;;;;9.52;2.85;;;;;;;;;;4931673;28;20039;-80
2022/05/30 11:53:10;;;;;;;9.32;2.85;;;;;;;;;;4966318;28;20071;-80
2022/05/30 11:55:42;;;;;;;10.18;2.90;;;;;;;;;;4932941;29;20505;-81
2022/05/30 11:58:10;;;;;;;9.30;3.00;;;;;;;;;;4930854;28;20039;-80
2022/05/30 12:00:43;;;;;;;6.47;2.97;;;;;;;;;;4997169;28;20553;-80
2022/05/30 12:03:29;;;;;;;8.00;2.97;;;;;;;;;;4970672;28;20070;-80
2022/05/30 12:06:22;;;;;;;7.13;3.42;;;;;;;;;;5008502;28;20094;-80
2022/05/30 12:09:25;;;;;;;6.40;2.63;;;;;;;;;;4932151;28;20044;-80
2022/05/30 12:12:10;;;;;;;;;;;;;;;;;;4999121;28;20050;-80
2022/05/30 12:14:54;;;;;;;6.72;1.75;;;;;;;;;;4933907;28;19973;-80
2022/05/30 12:17:38;;;;;;;6.43;2.30;;;;;;;;;;4950127;29;20600;-80
2022/05/30 12:25:52;;;;;;;3.95;1.75;;;;;;;;;;4991426;28;20051;-80
2022/05/30 12:28:34;;;;;;;6.75;2.08;;;;;;;;;;4932560;29;20046;-81
2022/05/30 12:31:05;;;;;;;5.05;2.25;;;;;;;;;;4945019;28;20537;-79
2022/05/30 12:33:30;;;;;;;7.75;1.70;;;;;;;;;;4918726;28;20104;-81
2022/05/30 12:36:08;;;;;;;5.60;2.25;;;;;;;;;;4932830;28;20501;-80
2022/05/30 12:38:53;;;;;;;5.82;2.00;;;;;;;;;;5017595;28;21348;-81
2022/05/30 12:41:26;;;;;;;5.93;2.15;;;;;;;;;;4958220;28;20035;-80
2022/05/30 12:43:55;;;;;;;10.85;5.90;;;;;;;;;;5001991;28;20031;-81
2022/05/30 12:46:22;;;;;;;19.77;12.57;;;;;;;;;;4985719;28;20051;-80
2022/05/30 12:48:53;;;;;;;21.70;14.43;;;;;;;;;;4982320;28;20118;-81
2022/05/30 12:51:39;;;;;;;26.98;17.50;;;;;;;;;;4949654;28;20147;-80
2022/05/30 12:54:07;;;;;;;29.25;19.58;;;;;;;;;;5001742;28;20042;-80
2022/05/30 12:56:39;;;;;;;32.83;20.80;;;;;;;;;;4949643;28;20048;-81
2022/05/30 12:59:11;;;;;;;27.48;18.70;;;;;;;;;;5017891;28;20059;-80
2022/05/30 13:01:42;;;;;;;29.10;18.67;;;;;;;;;;5015687;28;20039;-80
2022/05/30 13:04:25;;;;;;;26.00;18.08;;;;;;;;;;4950950;28;20092;-80
2022/05/30 13:06:53;;;;;;;;;;;;;;;;;;5016242;28;20510;-81
2022/05/30 13:09:35;;;;;;;23.67;15.38;;;;;;;;;;5031920;28;19919;-81
2022/05/30 13:12:17;;;;;;;20.70;13.75;;;;;;;;;;5001008;28;20035;-81
2022/05/30 13:15:01;;;;;;;20.60;12.55;;;;;;;;;;5016886;28;20042;-81
2022/05/30 13:17:52;;;;;;;19.67;11.55;;;;;;;;;;4931252;29;20040;-81
2022/05/30 13:20:21;;;;;;;19.00;10.97;;;;;;;;;;4936072;28;20106;-81
2022/05/30 13:23:06;;;;;;;16.30;10.23;;;;;;;;;;4947605;28;20039;-81
2022/05/30 13:25:47;;;;;;;17.65;9.57;;;;;;;;;;4930687;28;20541;-80
2022/05/30 13:28:23;;;;;;;20.02;9.27;;;;;;;;;;4932747;28;20093;-81
2022/05/30 13:30:49;;;;;;;14.38;8.60;;;;;;;;;;4981811;28;20540;-81
2022/05/30 13:33:22;;;;;;;18.02;9.57;;;;;;;;;;4998363;28;20055;-82
2022/05/30 13:35:50;;;;;;;19.52;8.73;;;;;;;;;;4931424;29;20089;-81
2022/05/30 13:38:16;;;;;;;14.95;9.27;;;;;;;;;;4984791;28;20054;-81
2022/05/30 13:40:44;;;;;;;33.13;23.38;;;;;;;;;;4937503;28;20097;-81
2022/05/30 13:43:10;;;;;;;27.55;21.75;;;;;;;;;;4995198;28;20127;-81
2022/05/30 13:45:36;;;;;;;24.88;17.25;;;;;;;;;;4918983;29;20520;-80
2022/05/30 13:48:09;;;;;;;22.23;14.30;;;;;;;;;;4931925;29;20040;-81
2022/05/30 13:50:43;;;;;;;21.67;14.98;;;;;;;;;;4982038;28;20426;-81
2022/05/30 13:53:08;;;;;;;23.48;16.13;;;;;;;;;;4974381;28;20115;-81
2022/05/30 13:55:34;;;;;;;20.63;14.63;;;;;;;;;;4968150;28;20567;-80
2022/05/30 13:58:03;;;;;;;20.33;13.20;;;;;;;;;;5000653;28;20405;-80
2022/05/30 14:00:34;;;;;;;17.75;12.18;;;;;;;;;;4968559;28;20098;-80
2022/05/30 14:02:59;;;;;;;18.02;11.25;;;;;;;;;;5001048;28;20043;-81
2022/05/30 14:05:38;;;;;;;14.50;10.65;;;;;;;;;;5001049;28;20049;-81
2022/05/30 14:08:06;;;;;;;18.83;10.48;;;;;;;;;;4984145;28;20118;-80
2022/05/30 14:10:40;;;;;;;18.60;10.52;;;;;;;;;;4999832;28;20039;-81
2022/05/30 14:13:31;;;;;;;18.95;10.48;;;;;;;;;;4964538;28;20035;-80
2022/05/30 14:15:57;;;;;;;14.30;8.93;;;;;;;;;;4992049;28;20046;-80
2022/05/30 14:18:25;;;;;;;14.80;7.93;;;;;;;;;;5000921;28;20039;-81
2022/05/30 14:20:50;;;;;;;12.23;7.70;;;;;;;;;;4933941;28;20047;-81
2022/05/30 14:23:16;;;;;;;11.38;6.80;;;;;;;;;;4918137;29;20498;-81
2022/05/30 14:25:48;;;;;;;10.55;6.90;;;;;;;;;;4918225;28;20475;-80
2022/05/30 14:28:27;;;;;;;9.70;6.00;;;;;;;;;;4949807;28;20039;-81
2022/05/30 14:30:55;;;;;;;10.02;6.28;;;;;;;;;;4919230;28;20417;-81
2022/05/30 14:33:24;;;;;;;10.93;6.10;;;;;;;;;;4983311;28;20039;-80
2022/05/30 14:35:49;;;;;;;9.68;5.85;;;;;;;;;;5000117;28;20522;-81
2022/05/30 14:38:26;;;;;;;10.93;5.70;;;;;;;;;;4933158;28;20038;-81
2022/05/30 14:40:52;;;;;;;12.65;5.97;;;;;;;;;;4984298;28;20031;-81
2022/05/30 14:43:28;;;;;;;8.38;4.78;;;;;;;;;;4918064;28;20497;-81
2022/05/30 14:46:12;;;;;;;9.80;4.88;;;;;;;;;;4918342;29;20455;-81
2022/05/30 14:48:51;;;;;;;10.02;4.75;;;;;;;;;;4949636;28;20031;-81
2022/05/30 14:51:23;;;;;;;6.20;3.53;;;;;;;;;;4934676;29;20119;-80
2022/05/30 14:53:50;;;;;;;8.48;4.20;;;;;;;;;;4918320;28;20031;-81
2022/05/30 14:56:20;;;;;;;8.48;4.03;;;;;;;;;;4999541;28;20043;-81
2022/05/30 14:59:00;;;;;;;7.35;4.30;;;;;;;;;;4982169;28;20122;-81
2022/05/30 15:01:25;;;;;;;7.13;3.33;;;;;;;;;;4998337;28;20073;-81
2022/05/30 15:04:04;;;;;;;6.20;3.25;;;;;;;;;;4981339;28;20035;-81
2022/05/30 15:06:33;;;;;;;7.22;3.33;;;;;;;;;;4973801;28;20040;-81
2022/05/30 15:08:58;;;;;;;5.32;2.85;;;;;;;;;;4996618;28;20046;-80
2022/05/30 15:11:24;;;;;;;5.78;2.85;;;;;;;;;;4996829;28;20048;-81
2022/05/30 15:14:03;;;;;;;5.05;2.72;;;;;;;;;;4997166;28;20445;-80
2022/05/30 15:16:29;;;;;;;4.63;2.50;;;;;;;;;;4979241;28;20379;-80
2022/05/30 15:18:54;;;;;;;6.07;2.67;;;;;;;;;;4996863;28;20039;-81